Time;durP1;ratioP1;P1;durP2;ratioP2;P2;SDS_P1;SDS_P2;PMS_P1;PMS_P2;Temp;Humidity;BMP_temperature;BMP_pressure;BME280_temperature;BME280_humidity;BME280_pressure;Samples;Min_cycle;Max_cycle;Signal;HPM_P1;HPM_P2
2022/12/05 00:01:39;;;;;;;31.08;16.00;;;4.00;99.90;;;;;;5094997;28;20047;-85
2022/12/05 00:04:07;;;;;;;27.75;15.25;;;4.00;99.90;;;;;;5106282;27;20504;-83
2022/12/05 00:06:35;;;;;;;27.42;15.95;;;4.10;99.90;;;;;;5104023;28;20059;-84
2022/12/05 00:09:00;;;;;;;26.08;16.02;;;4.10;99.90;;;;;;5099863;27;20027;-85
2022/12/05 00:11:29;;;;;;;25.60;15.15;;;4.10;99.90;;;;;;5103783;28;20043;-85
2022/12/05 00:13:56;;;;;;;28.00;15.25;;;4.10;99.90;;;;;;5108469;27;20070;-85
2022/12/05 00:16:24;;;;;;;28.25;16.27;;;4.00;99.90;;;;;;5085619;27;20130;-84
2022/12/05 00:18:51;;;;;;;33.10;16.27;;;4.10;99.90;;;;;;5112086;27;20043;-84
2022/12/05 00:21:23;;;;;;;27.10;14.63;;;4.10;99.90;;;;;;5111913;27;20039;-84
2022/12/05 00:23:50;;;;;;;32.63;16.83;;;4.10;99.90;;;;;;5113090;27;20069;-86
2022/12/05 00:26:16;;;;;;;29.50;15.00;;;4.10;99.90;;;;;;5106898;28;20031;-83
2022/12/05 00:28:41;;;;;;;27.35;15.77;;;4.10;99.90;;;;;;5113423;27;20038;-83
2022/12/05 00:31:13;;;;;;;27.15;16.00;;;4.10;99.90;;;;;;5111977;27;20030;-80
2022/12/05 00:33:39;;;;;;;28.75;15.32;;;4.20;99.90;;;;;;5114782;27;20042;-82
2022/12/05 00:36:07;;;;;;;31.17;15.73;;;4.20;99.90;;;;;;5106759;27;20051;-81
2022/12/05 00:38:33;;;;;;;29.73;16.25;;;4.20;99.90;;;;;;5102266;28;20174;-84
2022/12/05 00:41:10;;;;;;;28.63;16.23;;;4.20;99.90;;;;;;5100739;28;20042;-83
2022/12/05 00:43:36;;;;;;;30.60;17.73;;;4.30;99.90;;;;;;5081990;27;20039;-84
2022/12/05 00:46:04;;;;;;;30.50;16.80;;;4.30;99.90;;;;;;5098992;28;20039;-83
2022/12/05 00:48:30;;;;;;;29.17;16.48;;;4.30;99.90;;;;;;5108079;28;20114;-85
2022/12/05 00:51:04;;;;;;;29.77;16.92;;;4.30;99.90;;;;;;5080951;28;20548;-83
2022/12/05 00:53:31;;;;;;;30.67;17.08;;;4.30;99.90;;;;;;5088422;28;20023;-84
2022/12/05 00:56:04;;;;;;;31.50;17.67;;;4.30;99.90;;;;;;5115731;28;20504;-84
2022/12/05 00:58:31;;;;;;;29.88;16.77;;;4.30;99.90;;;;;;5087175;28;20032;-84
2022/12/05 01:00:57;;;;;;;31.65;17.70;;;4.30;99.90;;;;;;5107861;28;20114;-85
2022/12/05 01:03:22;;;;;;;30.95;17.60;;;4.30;99.90;;;;;;5114216;28;20072;-84
2022/12/05 01:05:48;;;;;;;28.25;16.63;;;4.30;99.90;;;;;;5103950;28;20024;-86
2022/12/05 01:08:14;;;;;;;31.25;17.48;;;4.30;99.90;;;;;;5100846;28;20045;-84
2022/12/05 01:10:39;;;;;;;32.65;18.33;;;4.30;99.90;;;;;;5112247;28;20031;-85
2022/12/05 01:13:05;;;;;;;36.63;17.77;;;4.30;99.90;;;;;;5104845;28;20453;-84
2022/12/05 01:15:30;;;;;;;33.72;18.27;;;4.30;99.90;;;;;;5099303;28;20027;-85
2022/12/05 01:17:56;;;;;;;31.65;17.52;;;4.40;99.90;;;;;;5111496;28;20043;-84
2022/12/05 01:20:23;;;;;;;33.20;17.73;;;4.40;99.90;;;;;;5101148;28;20118;-84
2022/12/05 01:22:48;;;;;;;35.00;18.02;;;4.40;99.90;;;;;;5108493;28;20043;-85
2022/12/05 01:25:14;;;;;;;31.85;18.77;;;4.40;99.90;;;;;;5109806;28;20066;-85
2022/12/05 01:27:39;;;;;;;32.45;18.00;;;4.40;99.90;;;;;;5115180;28;20126;-85
2022/12/05 01:30:05;;;;;;;33.60;17.48;;;4.40;99.90;;;;;;5113927;28;20399;-85
2022/12/05 01:32:31;;;;;;;29.38;17.00;;;4.40;99.90;;;;;;5086680;27;20045;-84
2022/12/05 01:34:57;;;;;;;32.88;17.13;;;4.40;99.90;;;;;;5112427;27;20076;-85
2022/12/05 01:37:22;;;;;;;32.10;18.05;;;4.40;99.90;;;;;;5110192;27;20028;-84
2022/12/05 01:39:48;;;;;;;29.55;17.25;;;4.50;99.90;;;;;;5099329;27;20035;-85
2022/12/05 01:42:14;;;;;;;31.13;17.00;;;4.50;99.90;;;;;;5104829;28;20051;-84
2022/12/05 01:44:42;;;;;;;26.98;16.17;;;4.50;99.90;;;;;;5111337;27;20122;-84
2022/12/05 01:47:08;;;;;;;27.77;15.70;;;4.50;99.90;;;;;;5107683;27;20035;-82
2022/12/05 01:49:39;;;;;;;28.85;15.48;;;4.60;99.90;;;;;;5117300;27;20036;-84
2022/12/05 01:52:10;;;;;;;26.98;15.13;;;4.50;99.90;;;;;;5110174;27;20062;-84
2022/12/05 01:54:37;;;;;;;23.00;14.27;;;4.60;99.90;;;;;;5108612;27;20043;-85
2022/12/05 01:57:06;;;;;;;24.27;14.57;;;4.60;99.90;;;;;;5119595;27;20090;-85
2022/12/05 01:59:35;;;;;;;24.20;13.35;;;4.60;99.90;;;;;;5103846;28;20512;-83
2022/12/05 02:02:02;;;;;;;23.73;13.43;;;4.70;99.90;;;;;;5113707;27;20027;-84
2022/12/05 02:04:28;;;;;;;21.58;13.88;;;4.70;99.90;;;;;;5085365;27;20031;-86
2022/12/05 02:06:54;;;;;;;21.08;12.73;;;4.80;99.90;;;;;;5116162;27;20031;-84
2022/12/05 02:09:21;;;;;;;22.20;13.45;;;4.70;99.90;;;;;;5113348;27;20163;-84
2022/12/05 02:11:52;;;;;;;20.73;13.35;;;4.80;99.90;;;;;;5114844;27;20453;-84
2022/12/05 02:14:24;;;;;;;22.50;12.50;;;4.70;99.90;;;;;;5084678;27;20035;-82
2022/12/05 02:17:04;;;;;;;22.08;12.43;;;4.80;99.90;;;;;;5102763;27;20043;-84
2022/12/05 02:20:18;;;;;;;18.33;11.80;;;4.80;99.90;;;;;;5106972;27;20091;-83
2022/12/05 02:23:07;;;;;;;21.23;11.93;;;4.80;99.90;;;;;;4994945;28;20045;-82
2022/12/05 02:26:14;;;;;;;17.25;10.80;;;4.80;99.90;;;;;;4980402;28;20033;-83
2022/12/05 02:29:11;;;;;;;20.85;11.70;;;4.80;99.90;;;;;;5057119;27;20047;-83
2022/12/05 02:31:56;;;;;;;19.02;11.73;;;4.80;99.90;;;;;;5093500;27;20437;-85
2022/12/05 02:34:44;;;;;;;19.65;11.02;;;4.80;99.90;;;;;;5106619;27;20118;-84
2022/12/05 02:37:17;;;;;;;21.05;11.35;;;4.80;99.90;;;;;;5105742;27;20032;-84
2022/12/05 02:40:25;;;;;;;20.20;11.45;;;4.80;99.90;;;;;;5093330;27;20031;-84
2022/12/05 02:43:04;;;;;;;18.13;11.20;;;4.80;99.90;;;;;;5034039;28;20099;-84
2022/12/05 02:45:34;;;;;;;16.55;10.43;;;4.80;99.90;;;;;;5097503;27;20027;-84
2022/12/05 02:48:00;;;;;;;17.65;11.55;;;4.80;99.90;;;;;;5090928;28;20055;-84
2022/12/05 02:50:31;;;;;;;17.30;10.68;;;4.80;99.90;;;;;;5100783;27;20479;-84
2022/12/05 02:53:01;;;;;;;22.20;10.77;;;4.90;99.90;;;;;;5114017;27;20043;-83
2022/12/05 02:55:29;;;;;;;17.90;10.40;;;4.90;99.90;;;;;;5109274;27;20454;-82
2022/12/05 02:57:58;;;;;;;14.50;9.35;;;4.80;99.90;;;;;;5085489;28;20047;-84
2022/12/05 03:00:24;;;;;;;15.60;10.07;;;4.80;99.90;;;;;;5114793;27;20027;-83
2022/12/05 03:02:54;;;;;;;16.45;9.52;;;4.80;99.90;;;;;;5094113;27;20084;-84
2022/12/05 03:05:41;;;;;;;19.17;10.88;;;4.80;99.90;;;;;;5108860;27;20032;-83
2022/12/05 03:08:14;;;;;;;17.45;10.55;;;4.80;99.90;;;;;;5113036;27;20038;-84
2022/12/05 03:10:41;;;;;;;15.77;9.90;;;4.80;99.90;;;;;;5108437;27;20070;-83
2022/12/05 03:13:18;;;;;;;14.88;9.63;;;4.80;99.90;;;;;;5098773;28;20039;-84
2022/12/05 03:15:51;;;;;;;17.88;9.80;;;4.80;99.90;;;;;;5091391;27;20043;-85
2022/12/05 03:18:25;;;;;;;14.75;9.93;;;4.80;99.90;;;;;;5113269;27;20035;-82
2022/12/05 03:21:02;;;;;;;15.55;9.57;;;4.80;99.90;;;;;;5114840;27;20067;-83
2022/12/05 03:23:41;;;;;;;16.13;9.43;;;4.80;99.90;;;;;;5105012;27;20028;-85
2022/12/05 03:26:22;;;;;;;13.95;8.63;;;4.80;99.90;;;;;;5105133;28;20051;-84
2022/12/05 03:29:33;;;;;;;13.68;8.82;;;4.80;99.90;;;;;;5108835;27;20848;-83
2022/12/05 03:32:32;;;;;;;18.60;9.48;;;4.80;99.90;;;;;;5000156;28;20039;-83
2022/12/05 03:35:21;;;;;;;14.63;8.60;;;4.80;99.90;;;;;;5107508;27;20504;-83
2022/12/05 03:38:00;;;;;;;12.68;8.63;;;4.80;99.90;;;;;;5087598;27;20039;-84
2022/12/05 03:40:35;;;;;;;17.33;9.40;;;4.80;99.90;;;;;;5112952;27;20087;-81
2022/12/05 03:43:26;;;;;;;14.65;8.82;;;4.80;99.90;;;;;;5098897;27;20062;-82
2022/12/05 03:46:04;;;;;;;15.38;8.85;;;4.80;99.90;;;;;;5094504;27;20408;-82
2022/12/05 03:48:42;;;;;;;14.05;9.00;;;4.80;99.90;;;;;;5114219;27;20038;-83
2022/12/05 03:51:10;;;;;;;14.07;8.98;;;4.80;99.90;;;;;;5108839;27;20046;-81
2022/12/05 03:53:58;;;;;;;17.65;8.73;;;4.70;99.90;;;;;;5096708;27;20035;-84
2022/12/05 03:56:43;;;;;;;15.23;8.35;;;4.80;99.90;;;;;;5110165;27;20041;-83
2022/12/05 03:59:42;;;;;;;11.07;8.02;;;4.80;99.90;;;;;;5098680;27;20047;-83
2022/12/05 04:02:14;;;;;;;15.32;7.95;;;4.80;99.90;;;;;;5103687;27;20047;-83
2022/12/05 04:04:48;;;;;;;13.95;9.00;;;4.80;99.90;;;;;;5099827;27;20065;-83
2022/12/05 04:07:16;;;;;;;13.57;8.57;;;4.80;99.90;;;;;;5083348;27;20057;-83
2022/12/05 04:09:56;;;;;;;14.48;8.82;;;4.80;99.90;;;;;;5112188;28;20035;-82
2022/12/05 04:12:27;;;;;;;11.90;7.60;;;4.80;99.90;;;;;;5113995;27;20047;-81
2022/12/05 04:14:57;;;;;;;13.13;8.48;;;4.80;99.90;;;;;;5111906;27;20058;-82
2022/12/05 04:17:34;;;;;;;13.82;8.10;;;4.80;99.90;;;;;;5090444;27;20727;-83
2022/12/05 04:22:50;;;;;;;13.07;8.45;;;4.80;99.90;;;;;;5104021;27;20082;-82
2022/12/05 04:25:32;;;;;;;13.65;8.05;;;4.80;99.90;;;;;;5093233;27;20058;-83
2022/12/05 04:28:09;;;;;;;12.63;8.05;;;4.80;99.90;;;;;;5111091;27;20082;-83
2022/12/05 04:30:49;;;;;;;13.07;8.27;;;4.70;99.90;;;;;;5113654;27;20043;-84
2022/12/05 04:33:40;;;;;;;15.02;8.98;;;4.80;99.90;;;;;;5096145;27;20132;-83
2022/12/05 04:36:35;;;;;;;13.43;8.65;;;4.80;99.90;;;;;;5106450;28;20057;-85
2022/12/05 04:39:09;;;;;;;15.45;8.82;;;4.80;99.90;;;;;;5101596;28;20024;-84
2022/12/05 04:41:56;;;;;;;12.85;8.25;;;4.80;99.90;;;;;;5110576;28;20031;-84
2022/12/05 04:44:27;;;;;;;15.25;9.32;;;4.80;99.90;;;;;;5114735;27;20500;-82
2022/12/05 04:46:55;;;;;;;14.85;8.93;;;4.80;99.90;;;;;;5121039;27;20034;-82
2022/12/05 04:49:23;;;;;;;14.63;8.65;;;4.80;99.90;;;;;;5121962;27;20043;-83
2022/12/05 04:51:58;;;;;;;18.98;9.65;;;4.90;99.90;;;;;;5109383;28;20039;-82
2022/12/05 04:54:41;;;;;;;16.70;9.07;;;4.80;99.90;;;;;;5116833;28;20050;-83
2022/12/05 04:57:23;;;;;;;18.83;9.05;;;4.90;99.90;;;;;;5113350;28;20067;-82
2022/12/05 04:59:48;;;;;;;14.32;8.50;;;4.90;99.90;;;;;;5110017;28;20039;-82
2022/12/05 05:02:20;;;;;;;16.27;9.13;;;4.90;99.90;;;;;;5117103;28;20461;-81
2022/12/05 05:04:51;;;;;;;12.35;8.13;;;4.80;99.90;;;;;;5116638;28;20031;-82
2022/12/05 05:07:18;;;;;;;16.35;9.25;;;4.90;99.90;;;;;;5090615;28;20091;-83
2022/12/05 05:09:44;;;;;;;15.52;8.75;;;4.80;99.90;;;;;;5098637;28;20036;-83
2022/12/05 05:12:11;;;;;;;14.05;8.52;;;4.80;99.90;;;;;;5100299;28;20536;-81
2022/12/05 05:14:36;;;;;;;16.58;8.98;;;4.90;99.90;;;;;;5100479;28;20043;-81
2022/12/05 05:17:02;;;;;;;16.63;8.65;;;4.90;99.90;;;;;;5093582;27;20041;-82
2022/12/05 05:19:28;;;;;;;14.35;8.48;;;4.80;99.90;;;;;;5089590;28;20058;-81
2022/12/05 05:21:53;;;;;;;14.40;9.02;;;4.80;99.90;;;;;;5100177;28;20047;-81
2022/12/05 05:24:22;;;;;;;14.10;8.00;;;4.80;99.90;;;;;;5100558;28;20044;-82
2022/12/05 05:26:47;;;;;;;13.75;8.90;;;4.90;99.90;;;;;;5083346;28;20035;-82
2022/12/05 05:29:16;;;;;;;13.93;8.35;;;4.90;99.90;;;;;;5097423;28;20053;-82
2022/12/05 05:31:42;;;;;;;14.40;8.82;;;4.90;99.90;;;;;;5110321;27;20169;-82
2022/12/05 05:34:09;;;;;;;15.48;8.23;;;4.90;99.90;;;;;;5115016;27;20070;-81
2022/12/05 05:36:35;;;;;;;13.70;8.27;;;4.90;99.90;;;;;;5088358;27;20082;-81
2022/12/05 05:39:02;;;;;;;14.27;8.13;;;4.80;99.90;;;;;;5129828;27;20039;-81
2022/12/05 05:41:30;;;;;;;14.38;8.60;;;4.90;99.90;;;;;;5094162;27;20039;-82
2022/12/05 05:43:57;;;;;;;15.02;8.63;;;4.80;99.90;;;;;;5114736;27;20031;-80
2022/12/05 05:46:25;;;;;;;14.45;8.18;;;4.90;99.90;;;;;;5111781;27;20091;-82
2022/12/05 05:48:51;;;;;;;14.60;8.35;;;4.90;99.90;;;;;;5111460;27;20042;-83
2022/12/05 05:51:18;;;;;;;14.25;8.70;;;4.90;99.90;;;;;;5112024;27;20058;-83
2022/12/05 05:53:44;;;;;;;13.48;8.40;;;4.90;99.90;;;;;;5111911;27;20043;-83
2022/12/05 05:56:13;;;;;;;13.38;8.00;;;4.90;99.90;;;;;;5097389;27;20050;-83
2022/12/05 05:58:40;;;;;;;15.13;8.40;;;4.90;99.90;;;;;;5119348;27;20080;-82
2022/12/05 06:01:07;;;;;;;15.18;8.73;;;4.90;99.90;;;;;;5109729;27;20063;-82
2022/12/05 06:03:33;;;;;;;14.20;8.80;;;4.90;99.90;;;;;;5114704;28;20055;-81
2022/12/05 06:06:01;;;;;;;15.65;8.52;;;4.90;99.90;;;;;;5110610;27;20043;-82
2022/12/05 06:08:29;;;;;;;14.25;8.45;;;4.90;99.90;;;;;;5099869;27;20035;-83
2022/12/05 06:10:54;;;;;;;13.38;8.40;;;4.90;99.90;;;;;;5118224;27;20042;-81
2022/12/05 06:13:20;;;;;;;12.80;7.57;;;4.90;99.90;;;;;;5108663;27;20131;-82
2022/12/05 06:15:45;;;;;;;15.45;8.35;;;4.90;99.90;;;;;;5114739;27;20126;-83
2022/12/05 06:18:11;;;;;;;12.63;8.30;;;4.90;99.90;;;;;;5113300;27;20035;-83
2022/12/05 06:20:36;;;;;;;13.23;7.60;;;4.90;99.90;;;;;;5108607;27;20046;-83
2022/12/05 06:23:02;;;;;;;15.02;8.00;;;5.00;99.90;;;;;;5116664;27;20039;-83
2022/12/05 06:25:27;;;;;;;12.00;7.55;;;5.00;99.90;;;;;;5113361;27;20404;-83
2022/12/05 06:27:53;;;;;;;13.25;8.02;;;4.90;99.90;;;;;;5104764;28;20489;-83
2022/12/05 06:30:19;;;;;;;13.30;7.72;;;4.90;99.90;;;;;;5109236;27;20031;-82
2022/12/05 06:32:44;;;;;;;12.48;9.13;;;4.90;99.90;;;;;;5095072;27;20554;-84
2022/12/05 06:35:14;;;;;;;13.93;8.10;;;4.90;99.90;;;;;;5110103;27;20056;-82
2022/12/05 06:37:41;;;;;;;15.15;8.32;;;4.90;99.90;;;;;;5103269;27;20477;-83
2022/12/05 06:40:07;;;;;;;15.20;8.80;;;4.90;99.90;;;;;;5111691;27;20429;-83
2022/12/05 06:42:33;;;;;;;14.48;9.10;;;5.00;99.90;;;;;;5107440;27;20027;-84
2022/12/05 06:44:58;;;;;;;18.38;8.88;;;4.90;99.90;;;;;;5099418;27;20100;-83
2022/12/05 06:47:24;;;;;;;14.02;8.73;;;4.90;99.90;;;;;;5111004;27;20043;-82
2022/12/05 06:49:49;;;;;;;15.43;8.38;;;5.00;99.90;;;;;;5098885;28;20032;-81
2022/12/05 06:52:15;;;;;;;14.88;9.05;;;4.90;99.90;;;;;;5109819;27;20075;-81
2022/12/05 06:54:40;;;;;;;17.80;8.90;;;5.00;99.90;;;;;;5101018;27;20135;-83
2022/12/05 06:57:06;;;;;;;15.10;8.48;;;5.00;99.90;;;;;;5104567;27;20032;-83
2022/12/05 06:59:31;;;;;;;16.40;9.18;;;5.00;99.90;;;;;;5091000;27;20079;-83
2022/12/05 07:01:57;;;;;;;15.23;8.70;;;5.00;99.90;;;;;;5087066;27;20043;-83
2022/12/05 07:04:23;;;;;;;16.30;9.13;;;5.00;99.90;;;;;;5104485;27;20315;-85
2022/12/05 07:06:50;;;;;;;19.10;9.32;;;4.90;99.90;;;;;;5109085;28;20614;-83
2022/12/05 07:09:17;;;;;;;17.48;8.90;;;5.00;99.90;;;;;;5115608;27;20186;-81
2022/12/05 07:11:48;;;;;;;16.58;8.70;;;5.00;99.90;;;;;;5113084;27;20045;-83
2022/12/05 07:14:14;;;;;;;18.08;9.05;;;5.00;99.90;;;;;;5108811;27;20067;-83
2022/12/05 07:16:39;;;;;;;17.83;8.68;;;5.00;99.90;;;;;;5117158;27;20039;-83
2022/12/05 07:19:05;;;;;;;19.25;9.68;;;5.00;99.90;;;;;;5113430;28;20039;-81
2022/12/05 07:21:31;;;;;;;18.23;8.70;;;5.00;99.90;;;;;;5081673;27;20039;-84
2022/12/05 07:23:56;;;;;;;19.10;9.40;;;5.00;99.90;;;;;;5109051;27;20484;-83
2022/12/05 07:26:23;;;;;;;18.67;9.43;;;5.00;99.90;;;;;;5109796;27;20039;-84
2022/12/05 07:28:50;;;;;;;16.35;8.70;;;5.00;99.90;;;;;;5100830;27;20035;-82
2022/12/05 07:31:21;;;;;;;20.83;10.23;;;5.00;99.90;;;;;;5101975;28;20035;-84
2022/12/05 07:33:47;;;;;;;19.58;9.63;;;5.00;99.90;;;;;;5111875;27;20047;-83
2022/12/05 07:36:16;;;;;;;20.65;8.57;;;5.00;99.90;;;;;;5113311;27;20192;-83
2022/12/05 07:38:42;;;;;;;16.75;9.10;;;5.00;99.90;;;;;;5133993;27;20122;-81
2022/12/05 07:41:12;;;;;;;18.50;9.60;;;5.00;99.90;;;;;;5099108;27;20205;-83
2022/12/05 07:43:38;;;;;;;19.00;9.15;;;5.00;99.90;;;;;;5115756;27;20480;-84
2022/12/05 07:46:05;;;;;;;20.65;10.32;;;5.00;99.90;;;;;;5110497;27;20027;-84
2022/12/05 07:48:31;;;;;;;19.98;9.88;;;5.00;99.90;;;;;;5111506;28;20032;-83
2022/12/05 07:51:04;;;;;;;16.98;9.07;;;5.00;99.90;;;;;;5107320;27;20100;-83
2022/12/05 07:53:31;;;;;;;22.52;9.75;;;5.00;99.90;;;;;;5107236;27;20040;-83
2022/12/05 07:56:05;;;;;;;19.63;9.98;;;5.00;99.90;;;;;;5095238;27;20050;-83
2022/12/05 07:58:32;;;;;;;19.48;9.18;;;5.00;99.90;;;;;;5113682;27;20124;-82
2022/12/05 08:01:08;;;;;;;19.25;9.43;;;5.00;99.90;;;;;;5111191;27;20116;-84
2022/12/05 08:03:36;;;;;;;18.80;9.65;;;5.00;99.90;;;;;;5101680;27;20132;-84
2022/12/05 08:06:07;;;;;;;17.35;8.40;;;5.10;99.90;;;;;;5111943;27;20106;-83
2022/12/05 08:08:33;;;;;;;21.35;9.52;;;5.00;99.90;;;;;;5083173;27;20716;-83
2022/12/05 08:11:04;;;;;;;19.33;9.10;;;5.00;99.90;;;;;;5097737;27;20036;-81
2022/12/05 08:13:30;;;;;;;18.45;9.32;;;5.00;99.90;;;;;;5098974;27;20146;-84
2022/12/05 08:16:00;;;;;;;19.40;9.73;;;5.10;99.90;;;;;;5109948;27;20043;-83
2022/12/05 08:18:25;;;;;;;16.35;9.20;;;5.10;99.90;;;;;;5117828;27;20039;-82
2022/12/05 08:20:51;;;;;;;16.73;8.35;;;5.10;99.90;;;;;;5113760;28;20043;-81
2022/12/05 08:23:16;;;;;;;19.15;8.68;;;5.10;99.90;;;;;;5095846;28;20039;-83
2022/12/05 08:25:42;;;;;;;15.82;8.50;;;5.10;99.90;;;;;;5097094;27;20015;-84
2022/12/05 08:28:07;;;;;;;20.08;8.70;;;5.10;99.90;;;;;;5116144;27;20031;-83
2022/12/05 08:30:33;;;;;;;18.08;8.70;;;5.10;99.90;;;;;;5115794;27;20070;-82
2022/12/05 08:32:59;;;;;;;17.77;8.95;;;5.10;99.90;;;;;;5114982;27;20070;-81
2022/12/05 08:35:25;;;;;;;19.48;8.45;;;5.20;99.90;;;;;;5099560;27;20039;-82
2022/12/05 08:37:51;;;;;;;16.70;8.98;;;5.10;99.90;;;;;;5113528;27;20079;-83
2022/12/05 08:40:16;;;;;;;17.13;8.50;;;5.10;99.90;;;;;;5099505;27;20104;-83
2022/12/05 08:42:42;;;;;;;15.93;8.15;;;5.10;99.90;;;;;;5094966;27;20131;-81
2022/12/05 08:45:08;;;;;;;14.07;8.45;;;5.10;99.90;;;;;;5117125;27;20035;-82
2022/12/05 08:47:35;;;;;;;14.25;7.57;;;5.10;99.90;;;;;;5116602;27;20043;-83
2022/12/05 08:50:01;;;;;;;14.63;8.40;;;5.10;99.90;;;;;;5099578;27;20042;-82
2022/12/05 08:52:26;;;;;;;17.75;8.82;;;5.10;99.90;;;;;;5097183;28;20416;-83
2022/12/05 08:54:52;;;;;;;15.18;8.10;;;5.10;99.90;;;;;;5096999;28;20524;-82
2022/12/05 08:57:17;;;;;;;16.58;8.15;;;5.10;99.90;;;;;;5091951;28;20107;-82
2022/12/05 08:59:43;;;;;;;17.58;8.18;;;5.10;99.90;;;;;;5093910;28;20511;-82
2022/12/05 09:02:09;;;;;;;16.33;8.65;;;5.10;99.90;;;;;;5111398;28;20039;-82
2022/12/05 09:04:35;;;;;;;19.83;9.63;;;5.10;99.90;;;;;;5098308;28;20134;-83
2022/12/05 09:07:02;;;;;;;18.90;9.20;;;5.10;99.90;;;;;;5111034;28;20041;-81
2022/12/05 09:09:27;;;;;;;19.90;9.10;;;5.10;99.90;;;;;;5108199;28;20027;-80
2022/12/05 09:11:53;;;;;;;17.90;8.90;;;5.10;99.90;;;;;;5108545;28;20096;-81
2022/12/05 09:14:19;;;;;;;19.30;9.63;;;5.20;99.90;;;;;;5096863;28;20041;-82
2022/12/05 09:16:46;;;;;;;22.98;11.48;;;5.10;99.90;;;;;;5110518;28;20051;-84
2022/12/05 09:19:26;;;;;;;19.35;12.15;;;5.10;99.90;;;;;;5100001;28;20472;-80
2022/12/05 09:21:52;;;;;;;18.05;9.85;;;5.10;99.90;;;;;;5105032;27;20063;-80
2022/12/05 09:24:18;;;;;;;18.60;9.60;;;5.10;99.90;;;;;;5106179;27;20032;-79
2022/12/05 09:26:44;;;;;;;19.35;9.65;;;5.20;99.90;;;;;;5111605;27;20035;-80
2022/12/05 09:29:11;;;;;;;18.15;9.00;;;5.10;99.90;;;;;;5092763;27;20031;-80
2022/12/05 09:31:37;;;;;;;18.25;8.98;;;5.20;99.90;;;;;;5094433;27;20126;-79
2022/12/05 09:34:03;;;;;;;19.52;9.13;;;5.20;99.90;;;;;;5115271;27;20043;-81
2022/12/05 09:36:30;;;;;;;18.65;11.02;;;5.10;99.90;;;;;;5110621;28;20035;-80
2022/12/05 09:38:59;;;;;;;22.08;9.48;;;5.20;99.90;;;;;;5091436;28;20039;-80
2022/12/05 09:44:51;;;;;;;20.63;9.27;;;5.10;99.90;;;;;;5104613;28;20092;-80
2022/12/05 09:47:26;;;;;;;17.73;9.68;;;5.20;99.90;;;;;;5104863;27;20039;-80
2022/12/05 09:50:32;;;;;;;19.48;9.48;;;5.20;99.90;;;;;;5102350;28;20100;-80
2022/12/05 09:53:05;;;;;;;17.73;9.50;;;5.20;99.90;;;;;;5093200;27;20054;-82
2022/12/05 09:55:43;;;;;;;19.23;9.15;;;5.20;99.90;;;;;;5099991;27;20440;-82
2022/12/05 09:58:28;;;;;;;18.33;10.23;;;5.20;99.90;;;;;;5117554;27;20556;-81
2022/12/05 10:01:16;;;;;;;20.50;9.82;;;5.20;99.90;;;;;;5109708;28;20039;-81
2022/12/05 10:03:48;;;;;;;15.80;9.10;;;5.20;99.90;;;;;;5116482;27;20034;-81
2022/12/05 10:06:25;;;;;;;21.58;9.55;;;5.20;99.90;;;;;;5104549;27;20040;-83
2022/12/05 10:09:11;;;;;;;17.35;9.13;;;5.20;99.90;;;;;;5116143;27;20034;-83
2022/12/05 10:11:55;;;;;;;19.73;9.88;;;5.20;99.90;;;;;;5098966;28;20089;-82
2022/12/05 10:14:57;;;;;;;15.70;9.55;;;5.20;99.90;;;;;;5117209;27;20066;-81
2022/12/05 10:17:36;;;;;;;21.95;9.90;;;5.20;99.90;;;;;;5101910;28;20043;-84
2022/12/05 10:20:11;;;;;;;19.48;9.88;;;5.20;99.90;;;;;;5110332;27;20080;-81
2022/12/05 10:23:11;;;;;;;16.13;9.40;;;5.20;99.90;;;;;;5086697;27;20038;-81
2022/12/05 10:25:38;;;;;;;20.42;9.60;;;5.20;99.90;;;;;;5089610;27;20058;-82
2022/12/05 10:28:11;;;;;;;17.30;9.13;;;5.20;99.90;;;;;;5109935;28;20036;-80
2022/12/05 10:30:40;;;;;;;16.95;9.15;;;5.20;99.90;;;;;;5098567;28;20114;-82
2022/12/05 10:33:21;;;;;;;19.95;9.80;;;5.20;99.90;;;;;;5097973;28;20063;-81
2022/12/05 10:35:52;;;;;;;16.80;8.50;;;5.20;99.90;;;;;;5097466;28;20036;-81
2022/12/05 10:38:28;;;;;;;16.50;8.68;;;5.20;99.90;;;;;;5086861;27;20187;-81
2022/12/05 10:40:58;;;;;;;16.75;8.65;;;5.20;99.90;;;;;;5107781;27;20035;-80
2022/12/05 10:43:28;;;;;;;15.93;8.50;;;5.20;99.90;;;;;;5112699;28;20092;-82
2022/12/05 10:45:54;;;;;;;19.98;8.88;;;5.20;99.90;;;;;;5086042;27;20046;-82
2022/12/05 10:48:21;;;;;;;14.15;8.45;;;5.20;99.90;;;;;;5093013;28;20040;-82
2022/12/05 10:50:53;;;;;;;17.50;9.00;;;5.20;99.90;;;;;;5109969;27;20054;-82
2022/12/05 10:53:22;;;;;;;15.30;8.90;;;5.20;99.90;;;;;;5098558;28;20042;-81
2022/12/05 10:55:50;;;;;;;16.13;7.53;;;5.30;99.90;;;;;;5102999;27;20042;-82
2022/12/05 10:58:33;;;;;;;13.93;8.80;;;5.20;99.90;;;;;;5113491;28;20064;-81
2022/12/05 11:01:12;;;;;;;14.05;8.00;;;5.20;99.90;;;;;;5114148;27;20035;-80
2022/12/05 11:03:39;;;;;;;14.90;8.05;;;5.20;99.90;;;;;;5092558;28;20035;-81
2022/12/05 11:06:29;;;;;;;15.85;7.28;;;5.20;99.90;;;;;;5091338;27;20571;-82
2022/12/05 11:09:11;;;;;;;16.90;7.80;;;5.20;99.90;;;;;;5100314;27;20504;-83
2022/12/05 11:11:37;;;;;;;13.32;8.15;;;5.20;99.90;;;;;;5086426;28;20529;-82
2022/12/05 11:14:06;;;;;;;13.60;7.43;;;5.20;99.90;;;;;;5112284;27;20042;-82
2022/12/05 11:16:38;;;;;;;16.42;7.75;;;5.20;99.90;;;;;;5112507;27;20031;-82
2022/12/05 11:19:23;;;;;;;14.02;7.15;;;5.20;99.90;;;;;;5115986;27;20043;-81
2022/12/05 11:21:49;;;;;;;13.85;7.57;;;5.20;99.90;;;;;;5116991;27;20035;-82
2022/12/05 11:24:34;;;;;;;12.88;7.60;;;5.20;99.90;;;;;;5100147;27;20154;-82
2022/12/05 11:27:19;;;;;;;12.98;7.38;;;5.30;99.90;;;;;;5101363;27;20038;-82
2022/12/05 11:30:03;;;;;;;13.75;7.43;;;5.20;99.90;;;;;;5101589;28;20382;-81
2022/12/05 11:32:31;;;;;;;13.77;7.05;;;5.30;99.90;;;;;;5103466;27;20106;-80
2022/12/05 11:35:12;;;;;;;15.75;7.55;;;5.30;99.90;;;;;;5118505;27;20427;-82
2022/12/05 11:37:45;;;;;;;11.45;6.25;;;5.30;99.90;;;;;;5102404;27;20068;-82
2022/12/05 11:40:27;;;;;;;16.13;6.57;;;5.20;99.90;;;;;;5100340;27;20056;-82
2022/12/05 11:43:17;;;;;;;11.07;6.50;;;5.30;99.90;;;;;;5099031;27;20036;-81
2022/12/05 11:46:14;;;;;;;17.05;6.63;;;5.30;99.90;;;;;;5105738;27;20489;-80
2022/12/05 11:49:12;;;;;;;11.90;6.20;;;5.30;99.90;;;;;;5097748;28;20036;-81
2022/12/05 11:51:45;;;;;;;10.85;6.15;;;5.30;99.90;;;;;;5067488;27;20050;-81
2022/12/05 11:54:30;;;;;;;11.38;6.18;;;5.20;99.90;;;;;;5100500;27;20111;-80
2022/12/05 11:57:12;;;;;;;10.27;5.93;;;5.20;99.90;;;;;;5117219;27;20578;-79
2022/12/05 12:00:02;;;;;;;10.43;5.90;;;5.30;99.90;;;;;;5098730;27;20516;-80
2022/12/05 12:03:00;;;;;;;10.98;5.70;;;5.30;99.90;;;;;;5103070;27;20043;-81
2022/12/05 12:05:51;;;;;;;12.65;5.75;;;5.20;99.90;;;;;;5105740;27;20061;-81
2022/12/05 12:08:24;;;;;;;9.88;5.43;;;5.20;99.90;;;;;;5088991;27;20031;-78
2022/12/05 12:11:14;;;;;;;9.30;5.20;;;5.30;99.90;;;;;;5118040;27;20035;-81
2022/12/05 12:14:18;;;;;;;9.00;5.53;;;5.20;99.90;;;;;;5105886;28;20073;-80
2022/12/05 12:16:55;;;;;;;11.80;5.85;;;5.20;99.90;;;;;;5099066;27;20092;-80
2022/12/05 12:19:53;;;;;;;9.43;5.32;;;5.20;99.90;;;;;;5095855;28;20057;-81
2022/12/05 12:23:00;;;;;;;8.95;5.18;;;5.20;99.90;;;;;;5083609;27;20517;-83
2022/12/05 12:26:10;;;;;;;10.07;4.97;;;5.20;99.90;;;;;;5107064;27;20032;-81
2022/12/05 12:29:02;;;;;;;8.35;4.60;;;5.30;99.90;;;;;;5098486;28;20093;-81
2022/12/05 12:31:36;;;;;;;9.60;5.15;;;5.30;99.90;;;;;;5115390;27;20054;-80
2022/12/05 12:34:23;;;;;;;9.52;4.93;;;5.30;99.90;;;;;;5100664;27;20048;-80
2022/12/05 12:37:00;;;;;;;8.82;4.85;;;5.30;99.90;;;;;;5115116;27;20074;-82
2022/12/05 12:39:52;;;;;;;12.30;5.47;;;5.30;99.90;;;;;;5100031;27;20447;-81
2022/12/05 12:42:26;;;;;;;8.73;4.63;;;5.30;99.90;;;;;;5105517;27;20043;-81
2022/12/05 12:45:34;;;;;;;8.10;4.55;;;5.30;99.90;;;;;;5109396;27;20081;-81
2022/12/05 12:48:21;;;;;;;8.32;4.40;;;5.30;99.90;;;;;;5090237;27;20401;-80
2022/12/05 12:50:51;;;;;;;9.77;4.70;;;5.30;99.90;;;;;;5085005;27;20035;-82
2022/12/05 12:53:33;;;;;;;9.02;4.72;;;5.30;99.90;;;;;;5093382;27;20035;-81
2022/12/05 12:56:37;;;;;;;8.32;4.72;;;5.30;99.90;;;;;;5115093;28;20035;-81
2022/12/05 12:59:41;;;;;;;7.22;4.20;;;5.30;99.90;;;;;;5102274;28;20035;-81
2022/12/05 13:02:34;;;;;;;7.03;4.75;;;5.30;99.90;;;;;;5106651;28;20423;-81
2022/12/05 13:05:23;;;;;;;8.35;4.22;;;5.30;99.90;;;;;;5113051;28;20038;-82
2022/12/05 13:08:15;;;;;;;8.25;4.75;;;5.30;99.90;;;;;;5106273;28;20065;-83
2022/12/05 13:10:44;;;;;;;8.43;4.63;;;5.30;99.90;;;;;;5097864;28;20043;-82
2022/12/05 13:13:24;;;;;;;9.18;4.60;;;5.30;99.90;;;;;;5105555;28;20028;-82
2022/12/05 13:15:53;;;;;;;9.63;4.55;;;5.30;99.90;;;;;;5109238;28;20114;-82
2022/12/05 13:18:21;;;;;;;7.20;4.45;;;5.30;99.90;;;;;;5116663;28;20045;-81
2022/12/05 13:20:51;;;;;;;7.85;4.57;;;5.30;99.90;;;;;;5090090;28;20039;-82
2022/12/05 13:23:21;;;;;;;8.55;4.53;;;5.30;99.90;;;;;;5109477;27;20500;-81